Time;durP1;ratioP1;P1;durP2;ratioP2;P2;SDS_P1;SDS_P2;PMS_P1;PMS_P2;Temp;Humidity;BMP_temperature;BMP_pressure;BME280_temperature;BME280_humidity;BME280_pressure;Samples;Min_cycle;Max_cycle;Signal;HPM_P1;HPM_P2
2021/07/13 00:00:57;;;;;;;15.38;6.20;;;;;;;;;;6291208;28;20142;-71
2021/07/13 00:03:59;;;;;;;8.43;6.78;;;;;;;;;;6298272;28;20040;-70
2021/07/13 00:07:00;;;;;;;10.50;6.28;;;;;;;;;;6290883;28;20067;-70
2021/07/13 00:10:04;;;;;;;9.10;6.90;;;;;;;;;;6293711;28;20056;-70
2021/07/13 00:13:07;;;;;;;9.00;7.05;;;;;;;;;;6292461;28;20131;-72
2021/07/13 00:16:09;;;;;;;7.50;6.70;;;;;;;;;;6289116;28;20059;-70
2021/07/13 00:19:10;;;;;;;8.93;5.90;;;;;;;;;;6295721;28;20040;-71
2021/07/13 00:22:12;;;;;;;11.30;6.18;;;;;;;;;;6294172;28;20054;-72
2021/07/13 00:25:15;;;;;;;7.35;6.47;;;;;;;;;;6293239;28;20048;-72
2021/07/13 00:28:18;;;;;;;7.55;6.13;;;;;;;;;;6297415;28;20583;-71
2021/07/13 00:31:20;;;;;;;11.32;5.90;;;;;;;;;;6291772;28;20124;-70
2021/07/13 00:34:21;;;;;;;10.45;6.13;;;;;;;;;;6294029;28;20048;-70
2021/07/13 00:37:23;;;;;;;10.55;6.20;;;;;;;;;;6291817;28;20061;-72
2021/07/13 00:40:25;;;;;;;9.52;6.40;;;;;;;;;;6298593;28;20109;-79
2021/07/13 00:43:28;;;;;;;8.95;6.30;;;;;;;;;;6297082;28;20053;-70
2021/07/13 00:46:30;;;;;;;9.95;6.00;;;;;;;;;;6294937;28;20060;-77
2021/07/13 00:49:32;;;;;;;8.80;5.70;;;;;;;;;;6295350;28;20048;-70
2021/07/13 00:52:34;;;;;;;9.55;6.47;;;;;;;;;;6294543;28;20067;-70
2021/07/13 00:55:36;;;;;;;7.85;5.95;;;;;;;;;;6299876;28;20259;-71
2021/07/13 00:58:39;;;;;;;7.47;6.03;;;;;;;;;;6305272;28;20044;-71
2021/07/13 01:01:41;;;;;;;8.20;6.50;;;;;;;;;;6292242;28;20086;-70
2021/07/13 01:04:46;;;;;;;7.57;5.78;;;;;;;;;;6299655;28;20053;-70
2021/07/13 01:07:52;;;;;;;8.95;6.20;;;;;;;;;;6298096;28;20036;-70
2021/07/13 01:11:01;;;;;;;10.65;6.95;;;;;;;;;;6292798;28;20098;-71
2021/07/13 01:14:08;;;;;;;11.85;6.53;;;;;;;;;;6297547;28;20059;-71
2021/07/13 01:17:14;;;;;;;8.23;6.35;;;;;;;;;;6286190;28;20123;-71
2021/07/13 01:20:33;;;;;;;7.97;6.35;;;;;;;;;;6289051;28;20178;-73
2021/07/13 01:24:04;;;;;;;10.45;6.68;;;;;;;;;;6298044;28;20548;-70
2021/07/13 01:27:12;;;;;;;9.05;6.55;;;;;;;;;;6293908;28;20044;-70
2021/07/13 01:30:18;;;;;;;9.68;7.15;;;;;;;;;;6299502;28;20040;-72
2021/07/13 01:33:22;;;;;;;10.70;6.45;;;;;;;;;;6294532;28;20037;-72
2021/07/13 01:36:28;;;;;;;7.18;6.47;;;;;;;;;;6302216;28;20051;-72
2021/07/13 01:39:30;;;;;;;8.77;6.75;;;;;;;;;;6302920;28;20123;-72
2021/07/13 01:42:32;;;;;;;7.97;6.70;;;;;;;;;;6302260;28;20044;-70
2021/07/13 01:45:35;;;;;;;7.90;6.80;;;;;;;;;;6296683;28;20037;-74
2021/07/13 01:48:38;;;;;;;13.00;6.95;;;;;;;;;;6294109;28;20064;-70
2021/07/13 01:51:40;;;;;;;8.38;6.68;;;;;;;;;;6299137;28;20060;-70
2021/07/13 01:54:43;;;;;;;9.32;7.18;;;;;;;;;;6301753;28;20206;-70
2021/07/13 01:57:45;;;;;;;9.38;7.15;;;;;;;;;;6297750;28;20076;-71
2021/07/13 02:00:48;;;;;;;8.93;7.22;;;;;;;;;;6289801;28;20118;-73
2021/07/13 02:03:52;;;;;;;11.00;7.90;;;;;;;;;;6294292;28;20370;-70
2021/07/13 02:06:54;;;;;;;9.15;7.47;;;;;;;;;;6287231;28;20210;-74
2021/07/13 02:09:57;;;;;;;12.40;7.95;;;;;;;;;;6281695;28;20421;-68
2021/07/13 02:12:59;;;;;;;13.83;7.80;;;;;;;;;;6288416;28;20049;-69
2021/07/13 02:16:02;;;;;;;10.65;8.70;;;;;;;;;;6292872;28;20201;-77
2021/07/13 02:19:05;;;;;;;12.00;8.40;;;;;;;;;;6289245;28;20076;-69
2021/07/13 02:22:08;;;;;;;11.33;8.23;;;;;;;;;;6291704;28;20085;-67
2021/07/13 02:25:12;;;;;;;8.90;7.78;;;;;;;;;;6293454;28;20040;-71
2021/07/13 02:28:16;;;;;;;10.85;8.68;;;;;;;;;;6291794;28;20111;-72
2021/07/13 02:31:24;;;;;;;14.98;9.27;;;;;;;;;;6284640;28;20051;-68
2021/07/13 02:34:27;;;;;;;11.52;9.50;;;;;;;;;;6286819;28;20068;-67
2021/07/13 02:37:30;;;;;;;16.58;10.27;;;;;;;;;;6287222;28;20056;-67
2021/07/13 02:40:32;;;;;;;15.13;10.50;;;;;;;;;;6293477;28;20079;-67
2021/07/13 02:43:34;;;;;;;11.48;9.90;;;;;;;;;;6292919;28;20053;-69
2021/07/13 02:46:41;;;;;;;11.25;9.98;;;;;;;;;;6281498;28;20098;-67
2021/07/13 02:49:47;;;;;;;11.63;9.88;;;;;;;;;;6301182;28;20067;-67
2021/07/13 02:52:49;;;;;;;13.32;9.55;;;;;;;;;;6294015;28;20041;-67
2021/07/13 02:55:51;;;;;;;15.43;9.52;;;;;;;;;;6265467;28;20040;-67
2021/07/13 02:58:56;;;;;;;12.45;9.93;;;;;;;;;;6301154;28;20131;-71
2021/07/13 03:02:00;;;;;;;13.02;9.30;;;;;;;;;;6291328;28;20048;-68
2021/07/13 03:05:02;;;;;;;11.75;10.10;;;;;;;;;;6296938;28;20045;-68
2021/07/13 03:08:04;;;;;;;16.25;11.00;;;;;;;;;;6292836;28;20493;-67
2021/07/13 03:11:06;;;;;;;12.20;10.88;;;;;;;;;;6298477;28;20150;-70
2021/07/13 03:14:10;;;;;;;12.88;10.48;;;;;;;;;;6281430;28;20056;-67
2021/07/13 03:17:17;;;;;;;13.95;11.63;;;;;;;;;;6287935;28;20108;-67
2021/07/13 03:20:19;;;;;;;14.15;11.10;;;;;;;;;;6290347;28;20032;-70
2021/07/13 03:23:22;;;;;;;12.60;11.30;;;;;;;;;;6293563;28;20040;-67
2021/07/13 03:26:23;;;;;;;13.68;12.18;;;;;;;;;;6306249;28;20044;-67
2021/07/13 03:29:26;;;;;;;19.15;12.98;;;;;;;;;;6306603;28;20407;-67
2021/07/13 03:32:30;;;;;;;13.77;12.23;;;;;;;;;;6293748;28;20171;-67
2021/07/13 03:35:32;;;;;;;13.57;12.25;;;;;;;;;;6289091;28;20044;-73
2021/07/13 03:38:34;;;;;;;15.90;13.32;;;;;;;;;;6297877;28;20082;-67
2021/07/13 03:41:36;;;;;;;17.30;12.57;;;;;;;;;;6299368;28;20101;-67
2021/07/13 03:44:38;;;;;;;16.38;13.38;;;;;;;;;;6297652;28;20063;-67
2021/07/13 03:47:45;;;;;;;15.77;13.25;;;;;;;;;;6282497;28;20114;-67
2021/07/13 03:50:47;;;;;;;20.25;13.93;;;;;;;;;;6295015;28;20041;-69
2021/07/13 03:53:49;;;;;;;17.27;13.73;;;;;;;;;;6295651;28;20216;-69
2021/07/13 03:56:51;;;;;;;17.50;13.88;;;;;;;;;;6298467;28;20064;-67
2021/07/13 03:59:53;;;;;;;15.40;13.23;;;;;;;;;;6295251;28;20057;-67
2021/07/13 04:02:56;;;;;;;19.65;15.23;;;;;;;;;;6289297;28;20100;-70
2021/07/13 04:05:58;;;;;;;;;;;;;;;;;;6289911;28;20550;-68
2021/07/13 04:09:00;;;;;;;20.00;15.48;;;;;;;;;;6295948;28;19920;-67
2021/07/13 04:12:02;;;;;;;17.40;14.25;;;;;;;;;;6294622;28;20466;-66
2021/07/13 04:15:04;;;;;;;16.98;13.77;;;;;;;;;;6290126;28;20052;-70
2021/07/13 04:18:08;;;;;;;16.13;14.43;;;;;;;;;;6289980;28;20103;-68
2021/07/13 04:21:09;;;;;;;19.15;14.40;;;;;;;;;;6288463;28;20122;-67
2021/07/13 04:24:11;;;;;;;15.10;13.50;;;;;;;;;;6295331;28;20100;-67
2021/07/13 04:27:13;;;;;;;17.35;14.35;;;;;;;;;;6292189;28;20487;-68
2021/07/13 04:30:15;;;;;;;15.73;14.10;;;;;;;;;;6296131;28;20044;-75
2021/07/13 04:33:18;;;;;;;19.57;14.70;;;;;;;;;;6288172;28;20496;-67
2021/07/13 04:36:20;;;;;;;16.55;14.68;;;;;;;;;;6292869;28;20101;-67
2021/07/13 04:39:21;;;;;;;15.90;13.63;;;;;;;;;;6298960;28;20569;-67
2021/07/13 04:42:23;;;;;;;17.10;14.52;;;;;;;;;;6290450;28;20044;-71
2021/07/13 04:45:25;;;;;;;16.75;14.25;;;;;;;;;;6293548;28;20118;-71
2021/07/13 04:48:27;;;;;;;18.00;14.05;;;;;;;;;;6290968;28;20229;-68
2021/07/13 04:51:29;;;;;;;18.27;14.27;;;;;;;;;;6283611;28;20067;-67
2021/07/13 04:54:33;;;;;;;18.60;13.52;;;;;;;;;;6291265;28;20492;-67
2021/07/13 04:57:35;;;;;;;21.70;13.13;;;;;;;;;;6295204;28;20070;-67
2021/07/13 05:00:36;;;;;;;18.25;14.18;;;;;;;;;;6292655;28;20044;-67
2021/07/13 05:03:39;;;;;;;17.30;15.07;;;;;;;;;;6295808;28;20045;-67
2021/07/13 05:06:41;;;;;;;17.02;13.98;;;;;;;;;;6292925;28;20060;-68
2021/07/13 05:09:43;;;;;;;16.77;14.48;;;;;;;;;;6298612;28;20052;-67
2021/07/13 05:12:45;;;;;;;18.20;15.35;;;;;;;;;;6291477;28;20061;-67
2021/07/13 05:15:47;;;;;;;16.58;14.13;;;;;;;;;;6290386;28;20106;-70
2021/07/13 05:18:50;;;;;;;16.92;14.57;;;;;;;;;;6299569;28;20051;-67
2021/07/13 05:21:56;;;;;;;15.27;13.68;;;;;;;;;;6290062;28;20129;-69
2021/07/13 05:24:58;;;;;;;17.88;14.18;;;;;;;;;;6292235;28;20045;-66
2021/07/13 05:28:00;;;;;;;17.17;14.10;;;;;;;;;;6295409;28;20127;-67
2021/07/13 05:31:01;;;;;;;17.00;13.90;;;;;;;;;;6292171;28;20143;-68
2021/07/13 05:34:04;;;;;;;15.43;12.68;;;;;;;;;;6295811;28;20049;-67
2021/07/13 05:37:06;;;;;;;13.95;12.32;;;;;;;;;;6291954;28;20046;-66
2021/07/13 05:40:09;;;;;;;14.80;11.95;;;;;;;;;;6298070;28;20507;-67
2021/07/13 05:43:11;;;;;;;16.38;11.65;;;;;;;;;;6272936;28;20131;-67
2021/07/13 05:46:13;;;;;;;13.63;11.68;;;;;;;;;;6289171;28;20057;-66
2021/07/13 05:49:15;;;;;;;13.02;11.63;;;;;;;;;;6279503;28;20123;-67
2021/07/13 05:52:17;;;;;;;18.60;11.23;;;;;;;;;;6292604;28;20129;-66
2021/07/13 05:55:19;;;;;;;12.38;10.10;;;;;;;;;;6269599;28;20088;-66
2021/07/13 05:58:22;;;;;;;13.02;10.23;;;;;;;;;;6293987;28;20098;-67
2021/07/13 06:01:24;;;;;;;11.13;9.43;;;;;;;;;;6277699;28;20064;-66
2021/07/13 06:04:27;;;;;;;14.25;9.25;;;;;;;;;;6290440;28;20071;-66
2021/07/13 06:07:28;;;;;;;10.43;9.10;;;;;;;;;;6289820;28;20052;-67
2021/07/13 06:10:30;;;;;;;10.63;9.23;;;;;;;;;;6293589;28;20045;-67
2021/07/13 06:13:32;;;;;;;15.73;8.30;;;;;;;;;;6293337;28;20207;-66
2021/07/13 06:16:34;;;;;;;9.00;8.05;;;;;;;;;;6283405;28;20496;-67
2021/07/13 06:19:37;;;;;;;12.07;7.78;;;;;;;;;;6293357;28;20044;-67
2021/07/13 06:22:38;;;;;;;9.05;8.13;;;;;;;;;;6287241;28;20080;-67
2021/07/13 06:25:42;;;;;;;9.27;8.02;;;;;;;;;;6280704;28;20123;-66
2021/07/13 06:28:44;;;;;;;11.77;7.53;;;;;;;;;;6295538;28;20118;-65
2021/07/13 06:31:45;;;;;;;10.15;7.88;;;;;;;;;;6283851;28;20113;-64
2021/07/13 06:34:48;;;;;;;13.82;8.43;;;;;;;;;;6292850;28;20074;-64
2021/07/13 06:37:50;;;;;;;10.20;7.03;;;;;;;;;;6284614;28;20049;-64
2021/07/13 06:40:51;;;;;;;10.00;7.18;;;;;;;;;;6287852;28;20042;-65
2021/07/13 06:43:53;;;;;;;11.73;7.45;;;;;;;;;;6296033;28;20131;-66
2021/07/13 06:46:54;;;;;;;12.25;7.18;;;;;;;;;;6287500;28;20044;-67
2021/07/13 06:49:57;;;;;;;8.32;7.00;;;;;;;;;;6293760;28;20130;-67
2021/07/13 06:52:59;;;;;;;13.48;6.78;;;;;;;;;;6283722;28;20064;-66
2021/07/13 06:56:01;;;;;;;11.23;7.15;;;;;;;;;;6285550;28;20045;-66
2021/07/13 06:59:02;;;;;;;10.27;6.80;;;;;;;;;;6293554;28;20102;-65
2021/07/13 07:02:04;;;;;;;13.05;7.90;;;;;;;;;;6282883;28;20144;-67
2021/07/13 07:05:09;;;;;;;11.15;6.95;;;;;;;;;;6290733;28;20057;-69
2021/07/13 07:08:10;;;;;;;9.15;6.72;;;;;;;;;;6295496;28;20531;-65
2021/07/13 07:11:12;;;;;;;11.48;6.53;;;;;;;;;;6297548;28;20051;-65
2021/07/13 07:14:14;;;;;;;9.13;6.38;;;;;;;;;;6293166;28;20433;-68
2021/07/13 07:17:15;;;;;;;14.18;5.90;;;;;;;;;;6284972;28;20145;-67
2021/07/13 07:20:20;;;;;;;8.35;6.32;;;;;;;;;;6291499;28;20040;-67
2021/07/13 07:23:22;;;;;;;8.00;5.80;;;;;;;;;;6292622;28;20104;-67
2021/07/13 07:26:23;;;;;;;11.95;5.80;;;;;;;;;;6291089;28;20040;-66
2021/07/13 07:29:25;;;;;;;10.50;6.45;;;;;;;;;;6288280;28;20047;-66
2021/07/13 07:32:27;;;;;;;7.88;6.10;;;;;;;;;;6285293;28;20056;-66
2021/07/13 07:35:30;;;;;;;16.70;7.32;;;;;;;;;;6289637;28;20554;-66
2021/07/13 07:38:31;;;;;;;;;;;;;;;;;;6295002;28;20048;-67
2021/07/13 07:41:33;;;;;;;11.60;6.63;;;;;;;;;;6287046;28;19970;-67
2021/07/13 07:44:35;;;;;;;10.20;6.38;;;;;;;;;;6292354;28;20063;-67
2021/07/13 07:47:37;;;;;;;14.63;6.65;;;;;;;;;;6285710;28;20055;-68
2021/07/13 07:50:40;;;;;;;8.48;6.60;;;;;;;;;;6287113;28;20044;-68
2021/07/13 07:53:41;;;;;;;10.30;6.57;;;;;;;;;;6294607;28;20553;-68
2021/07/13 07:56:43;;;;;;;11.55;6.97;;;;;;;;;;6288186;28;20063;-67
2021/07/13 07:59:48;;;;;;;8.85;6.60;;;;;;;;;;6287418;28;20048;-66
2021/07/13 08:02:49;;;;;;;10.85;6.50;;;;;;;;;;6283483;28;20049;-67
2021/07/13 08:05:55;;;;;;;11.30;8.02;;;;;;;;;;6283073;28;20119;-67
2021/07/13 08:08:56;;;;;;;9.80;7.20;;;;;;;;;;6289860;28;20605;-66
2021/07/13 08:11:58;;;;;;;17.10;8.48;;;;;;;;;;6295100;28;20044;-67
2021/07/13 08:15:00;;;;;;;10.05;8.73;;;;;;;;;;6298150;28;20064;-67
2021/07/13 08:18:02;;;;;;;9.07;8.02;;;;;;;;;;6287553;28;20111;-67
2021/07/13 08:21:06;;;;;;;9.38;8.38;;;;;;;;;;6289442;28;20040;-67
2021/07/13 08:24:10;;;;;;;11.20;8.55;;;;;;;;;;6297352;28;20052;-67
2021/07/13 08:27:12;;;;;;;12.85;8.82;;;;;;;;;;6287847;28;20051;-68
2021/07/13 08:30:14;;;;;;;15.15;10.10;;;;;;;;;;6294207;28;20064;-69
2021/07/13 08:33:16;;;;;;;13.63;8.73;;;;;;;;;;6288610;28;20076;-67
2021/07/13 08:36:19;;;;;;;14.98;9.57;;;;;;;;;;6288898;28;20040;-68
2021/07/13 08:39:21;;;;;;;15.38;10.82;;;;;;;;;;6289511;28;20525;-67
2021/07/13 08:42:22;;;;;;;15.90;11.52;;;;;;;;;;6289819;28;20076;-67
2021/07/13 08:45:25;;;;;;;13.35;11.95;;;;;;;;;;6284039;28;20052;-68
2021/07/13 08:48:26;;;;;;;20.42;14.55;;;;;;;;;;6279647;28;20124;-67
2021/07/13 08:51:29;;;;;;;18.75;15.18;;;;;;;;;;6278047;28;20108;-67
2021/07/13 08:54:33;;;;;;;18.08;15.30;;;;;;;;;;6286454;28;20061;-66
2021/07/13 08:57:37;;;;;;;15.35;13.75;;;;;;;;;;6290478;28;20131;-67
2021/07/13 09:00:39;;;;;;;16.23;14.27;;;;;;;;;;6291248;28;20106;-68
2021/07/13 09:03:54;;;;;;;18.40;13.13;;;;;;;;;;6290354;28;20153;-66
2021/07/13 09:06:58;;;;;;;13.52;12.10;;;;;;;;;;6285170;28;20496;-67
2021/07/13 09:10:04;;;;;;;15.98;11.30;;;;;;;;;;6298668;28;20086;-67
2021/07/13 09:13:05;;;;;;;14.15;11.85;;;;;;;;;;6293326;28;20048;-66
2021/07/13 09:16:10;;;;;;;18.60;10.55;;;;;;;;;;6292512;28;20040;-66
2021/07/13 09:19:15;;;;;;;13.57;11.40;;;;;;;;;;6298475;28;20063;-67
2021/07/13 09:22:23;;;;;;;13.07;9.95;;;;;;;;;;6295254;28;20053;-67
2021/07/13 09:25:32;;;;;;;14.85;11.05;;;;;;;;;;6298862;28;20040;-68
2021/07/13 09:28:34;;;;;;;14.18;11.43;;;;;;;;;;6300865;28;20098;-67
2021/07/13 09:31:36;;;;;;;13.27;10.48;;;;;;;;;;6290300;28;20063;-66
2021/07/13 09:34:38;;;;;;;14.65;11.00;;;;;;;;;;6300037;28;20052;-67
2021/07/13 09:37:43;;;;;;;17.95;10.32;;;;;;;;;;6288140;28;20141;-66
2021/07/13 09:40:46;;;;;;;11.13;9.55;;;;;;;;;;6294048;28;20044;-67
2021/07/13 09:43:49;;;;;;;12.00;9.60;;;;;;;;;;6296405;28;20044;-66
2021/07/13 09:46:51;;;;;;;10.88;9.77;;;;;;;;;;6287382;28;20764;-66
2021/07/13 09:49:53;;;;;;;12.65;9.57;;;;;;;;;;6289838;28;20068;-66
2021/07/13 09:52:59;;;;;;;14.57;9.80;;;;;;;;;;6289304;28;20051;-67
2021/07/13 09:56:00;;;;;;;12.05;8.80;;;;;;;;;;6286100;28;20115;-66
2021/07/13 09:59:02;;;;;;;10.52;9.07;;;;;;;;;;6294671;28;20129;-66
2021/07/13 10:02:05;;;;;;;10.55;8.57;;;;;;;;;;6284341;28;20087;-68
2021/07/13 10:05:06;;;;;;;16.00;9.38;;;;;;;;;;6291884;28;20044;-68
2021/07/13 10:08:11;;;;;;;11.02;8.65;;;;;;;;;;6286535;28;20064;-67
2021/07/13 10:11:13;;;;;;;10.38;6.75;;;;;;;;;;6292148;28;20041;-67
2021/07/13 10:14:14;;;;;;;9.52;5.45;;;;;;;;;;6305622;28;20551;-65
2021/07/13 10:17:17;;;;;;;9.68;5.78;;;;;;;;;;6296586;28;20108;-75
2021/07/13 10:20:20;;;;;;;;;;;;;;;;;;6300287;28;20040;-68
2021/07/13 10:23:24;;;;;;;6.65;5.85;;;;;;;;;;6297984;28;19947;-66
2021/07/13 10:26:49;;;;;;;7.07;5.80;;;;;;;;;;6299829;28;20045;-65
2021/07/13 10:29:51;;;;;;;11.85;6.63;;;;;;;;;;6307113;28;20087;-65
2021/07/13 10:32:53;;;;;;;8.63;5.57;;;;;;;;;;6295037;28;20044;-66
2021/07/13 10:35:57;;;;;;;8.65;6.32;;;;;;;;;;6299234;28;20044;-66
2021/07/13 10:39:29;;;;;;;10.90;7.10;;;;;;;;;;6303005;28;20040;-67
2021/07/13 10:42:48;;;;;;;10.57;7.15;;;;;;;;;;6301590;28;20413;-65
2021/07/13 10:46:06;;;;;;;11.35;8.15;;;;;;;;;;6298386;28;20044;-68
2021/07/13 10:49:17;;;;;;;9.80;8.88;;;;;;;;;;6300860;28;20040;-66
2021/07/13 10:52:50;;;;;;;10.55;7.95;;;;;;;;;;6299321;28;20046;-66
2021/07/13 10:55:56;;;;;;;9.57;8.10;;;;;;;;;;6295762;28;20059;-66
2021/07/13 10:58:57;;;;;;;10.32;7.60;;;;;;;;;;6300833;28;20051;-68
2021/07/13 11:02:09;;;;;;;9.77;5.73;;;;;;;;;;6290480;28;20044;-67
2021/07/13 11:05:50;;;;;;;5.67;4.97;;;;;;;;;;6292923;28;20051;-68
2021/07/13 11:08:53;;;;;;;8.25;4.20;;;;;;;;;;6289024;28;20051;-68
2021/07/13 11:12:05;;;;;;;6.32;3.65;;;;;;;;;;6284919;28;20048;-66
2021/07/13 11:15:07;;;;;;;;;;;;;;;;;;6292805;28;20044;-68
2021/07/13 11:18:08;;;;;;;6.43;3.55;;;;;;;;;;6281553;28;19959;-67
2021/07/13 11:21:15;;;;;;;7.00;3.27;;;;;;;;;;6289583;28;20499;-65
2021/07/13 11:24:18;;;;;;;6.28;3.75;;;;;;;;;;6297388;28;20630;-65
2021/07/13 11:27:21;;;;;;;8.45;3.85;;;;;;;;;;6296403;28;20045;-65
2021/07/13 11:30:23;;;;;;;5.85;3.72;;;;;;;;;;6296320;28;20047;-72
2021/07/13 11:33:27;;;;;;;8.65;3.53;;;;;;;;;;6298305;28;20484;-66
2021/07/13 11:36:30;;;;;;;7.65;3.40;;;;;;;;;;6298494;28;20044;-66
2021/07/13 11:39:33;;;;;;;6.35;2.80;;;;;;;;;;6303280;28;20075;-66
2021/07/13 11:42:36;;;;;;;6.65;2.95;;;;;;;;;;6297274;28;20108;-66
2021/07/13 11:45:38;;;;;;;4.00;2.42;;;;;;;;;;6299129;28;20044;-68
2021/07/13 11:48:41;;;;;;;9.20;2.87;;;;;;;;;;6296979;28;20052;-66
2021/07/13 11:51:46;;;;;;;3.75;2.85;;;;;;;;;;6284955;28;20676;-65
2021/07/13 11:54:53;;;;;;;5.15;2.75;;;;;;;;;;6295262;28;20286;-66
2021/07/13 11:57:56;;;;;;;4.85;3.05;;;;;;;;;;6293606;28;20048;-66
2021/07/13 12:01:16;;;;;;;6.82;3.40;;;;;;;;;;6287822;28;20110;-69
2021/07/13 12:04:17;;;;;;;6.65;3.67;;;;;;;;;;6296849;28;20052;-65
2021/07/13 12:07:20;;;;;;;6.77;4.13;;;;;;;;;;6293857;28;20052;-67
2021/07/13 12:10:22;;;;;;;8.43;4.72;;;;;;;;;;6293844;28;20051;-67
2021/07/13 12:13:25;;;;;;;9.90;4.43;;;;;;;;;;6290222;28;20040;-66
2021/07/13 12:16:29;;;;;;;5.68;4.35;;;;;;;;;;6295763;28;20049;-66
2021/07/13 12:19:33;;;;;;;6.72;3.47;;;;;;;;;;6296061;28;20041;-66
2021/07/13 12:22:35;;;;;;;4.93;2.97;;;;;;;;;;6287329;28;20050;-68
2021/07/13 12:25:36;;;;;;;7.00;3.20;;;;;;;;;;6295417;28;20060;-67
2021/07/13 12:28:39;;;;;;;7.63;2.60;;;;;;;;;;6295004;28;20474;-66
2021/07/13 12:31:55;;;;;;;5.00;2.70;;;;;;;;;;6290501;28;20052;-65
2021/07/13 12:34:57;;;;;;;7.72;2.90;;;;;;;;;;6293464;28;20056;-69
2021/07/13 12:38:09;;;;;;;7.57;3.10;;;;;;;;;;6289747;28;20320;-66
2021/07/13 12:41:14;;;;;;;7.50;3.40;;;;;;;;;;6297858;28;20099;-66
2021/07/13 12:44:34;;;;;;;8.73;3.13;;;;;;;;;;6307089;28;20102;-67
2021/07/13 12:47:37;;;;;;;7.93;3.10;;;;;;;;;;6296896;28;20086;-69
2021/07/13 12:50:46;;;;;;;4.22;3.33;;;;;;;;;;6298241;28;20076;-66
2021/07/13 12:53:48;;;;;;;4.95;2.80;;;;;;;;;;6300058;28;20036;-64
2021/07/13 12:56:50;;;;;;;5.93;3.30;;;;;;;;;;6297852;28;20141;-65
2021/07/13 13:00:07;;;;;;;7.70;3.33;;;;;;;;;;6306710;28;20498;-66
2021/07/13 13:03:11;;;;;;;6.40;3.80;;;;;;;;;;6279005;28;20046;-66
2021/07/13 13:06:13;;;;;;;7.28;3.33;;;;;;;;;;6300836;28;20044;-66
2021/07/13 13:09:18;;;;;;;5.13;3.88;;;;;;;;;;6304501;28;20068;-69
2021/07/13 13:12:19;;;;;;;7.15;4.00;;;;;;;;;;6301300;28;20051;-66
2021/07/13 13:15:25;;;;;;;7.85;4.50;;;;;;;;;;6300069;28;20049;-67
2021/07/13 13:18:28;;;;;;;9.15;3.60;;;;;;;;;;6302926;28;20052;-66
2021/07/13 13:21:31;;;;;;;5.03;3.83;;;;;;;;;;6300888;28;20219;-66
2021/07/13 13:24:33;;;;;;;10.95;4.05;;;;;;;;;;6305976;28;20182;-65
2021/07/13 13:27:34;;;;;;;7.47;3.95;;;;;;;;;;6294928;28;20053;-67
2021/07/13 13:30:38;;;;;;;11.85;6.90;;;;;;;;;;6298352;28;20547;-69
2021/07/13 13:33:41;;;;;;;61.97;51.22;;;;;;;;;;6298803;28;20072;-65
2021/07/13 13:36:43;;;;;;;11.07;8.55;;;;;;;;;;6299978;28;20060;-65
2021/07/13 13:39:45;;;;;;;6.10;3.90;;;;;;;;;;6303521;28;20052;-65
2021/07/13 13:42:46;;;;;;;12.55;4.05;;;;;;;;;;6298332;28;20124;-65
2021/07/13 13:45:49;;;;;;;7.35;3.28;;;;;;;;;;6292139;28;20067;-67
2021/07/13 13:48:51;;;;;;;6.20;3.78;;;;;;;;;;6296376;28;20106;-67
2021/07/13 13:51:53;;;;;;;7.47;3.40;;;;;;;;;;6291251;28;20100;-66
2021/07/13 13:54:54;;;;;;;6.57;2.75;;;;;;;;;;6294545;28;20171;-66
2021/07/13 13:57:56;;;;;;;8.13;2.50;;;;;;;;;;6292523;28;20086;-66
2021/07/13 14:00:59;;;;;;;4.43;2.75;;;;;;;;;;6290996;28;20044;-65
2021/07/13 14:04:01;;;;;;;5.70;2.70;;;;;;;;;;6298265;28;20049;-66
2021/07/13 14:07:03;;;;;;;9.73;3.03;;;;;;;;;;6296097;28;21463;-65
2021/07/13 14:10:05;;;;;;;8.75;3.80;;;;;;;;;;6299866;28;20154;-66
2021/07/13 14:13:07;;;;;;;13.27;3.90;;;;;;;;;;6293197;28;20049;-65
2021/07/13 14:16:10;;;;;;;8.30;3.55;;;;;;;;;;6295554;28;20074;-65
2021/07/13 14:19:12;;;;;;;6.18;3.47;;;;;;;;;;6296259;28;20063;-65
2021/07/13 14:22:13;;;;;;;6.32;3.30;;;;;;;;;;6292032;28;20419;-65
2021/07/13 14:25:17;;;;;;;7.82;2.95;;;;;;;;;;6299880;28;20072;-67
2021/07/13 14:28:19;;;;;;;9.30;2.97;;;;;;;;;;6296694;28;20045;-65
2021/07/13 14:31:22;;;;;;;5.07;2.53;;;;;;;;;;6290721;28;20044;-65
2021/07/13 14:34:24;;;;;;;5.90;2.47;;;;;;;;;;6295952;28;20114;-65
2021/07/13 14:37:25;;;;;;;2.90;2.10;;;;;;;;;;6292920;28;20040;-67
2021/07/13 14:40:27;;;;;;;3.25;2.30;;;;;;;;;;6295642;28;20107;-65
2021/07/13 14:43:29;;;;;;;5.25;2.55;;;;;;;;;;6298520;28;20419;-65
2021/07/13 14:46:32;;;;;;;8.00;2.50;;;;;;;;;;6293124;28;20044;-66
2021/07/13 14:49:34;;;;;;;5.72;2.45;;;;;;;;;;6297410;28;20049;-65
2021/07/13 14:52:35;;;;;;;6.05;2.47;;;;;;;;;;6290564;28;20496;-66
2021/07/13 14:55:37;;;;;;;4.18;2.58;;;;;;;;;;6287738;28;20076;-67
2021/07/13 14:58:39;;;;;;;5.60;2.70;;;;;;;;;;6290998;28;20049;-67
2021/07/13 15:01:42;;;;;;;5.75;2.90;;;;;;;;;;6282484;28;20072;-66
2021/07/13 15:04:44;;;;;;;7.90;2.83;;;;;;;;;;6298387;28;20557;-67
2021/07/13 15:07:45;;;;;;;5.03;2.53;;;;;;;;;;6299503;28;20079;-65
2021/07/13 15:10:51;;;;;;;5.80;2.70;;;;;;;;;;6299352;28;20086;-65
2021/07/13 15:13:53;;;;;;;4.78;2.55;;;;;;;;;;6295348;28;20135;-65
2021/07/13 15:16:58;;;;;;;4.32;2.30;;;;;;;;;;6292902;28;20470;-65
2021/07/13 15:19:59;;;;;;;4.90;2.55;;;;;;;;;;6295502;28;20105;-67
2021/07/13 15:23:01;;;;;;;8.55;2.42;;;;;;;;;;6290958;28;20133;-65
2021/07/13 15:26:03;;;;;;;7.15;2.67;;;;;;;;;;6288380;28;20613;-65
2021/07/13 15:29:04;;;;;;;5.00;2.63;;;;;;;;;;6299874;28;20097;-67
2021/07/13 15:32:08;;;;;;;6.13;2.33;;;;;;;;;;6294026;28;20163;-64
2021/07/13 15:35:10;;;;;;;5.60;2.70;;;;;;;;;;6299817;28;20051;-66
2021/07/13 15:38:13;;;;;;;8.82;3.08;;;;;;;;;;6295520;28;20099;-64
2021/07/13 15:41:14;;;;;;;;;;;;;;;;;;6294910;28;20040;-65
2021/07/13 15:44:16;;;;;;;4.13;2.95;;;;;;;;;;6305063;28;19944;-64
2021/07/13 15:47:19;;;;;;;5.68;2.80;;;;;;;;;;6291280;28;20040;-65
2021/07/13 15:50:22;;;;;;;5.47;2.90;;;;;;;;;;6296645;28;20048;-67
2021/07/13 15:53:24;;;;;;;6.97;2.35;;;;;;;;;;6296652;28;20514;-64
2021/07/13 15:56:25;;;;;;;5.45;2.35;;;;;;;;;;6290768;28;20084;-66
2021/07/13 15:59:29;;;;;;;5.88;2.85;;;;;;;;;;6281430;28;20048;-65
2021/07/13 16:02:32;;;;;;;7.30;2.92;;;;;;;;;;6285505;28;20055;-65
2021/07/13 16:05:35;;;;;;;;;;;;;;;;;;6287405;28;20138;-65
2021/07/13 16:08:37;;;;;;;6.20;2.20;;;;;;;;;;6281730;28;19920;-64
2021/07/13 16:11:38;;;;;;;5.93;2.58;;;;;;;;;;6284265;28;20053;-64
2021/07/13 16:14:40;;;;;;;4.32;1.88;;;;;;;;;;6289479;28;20887;-65
2021/07/13 16:17:43;;;;;;;5.13;1.58;;;;;;;;;;6269098;28;20076;-63
2021/07/13 16:20:44;;;;;;;3.53;1.23;;;;;;;;;;6271308;28;20191;-64
2021/07/13 16:23:46;;;;;;;4.68;1.10;;;;;;;;;;6273779;28;20143;-65
2021/07/13 16:26:48;;;;;;;2.65;1.30;;;;;;;;;;6269271;28;20068;-65
2021/07/13 16:29:49;;;;;;;2.38;1.60;;;;;;;;;;6278831;28;20443;-66
2021/07/13 16:32:52;;;;;;;5.38;1.92;;;;;;;;;;6274970;28;20041;-66
2021/07/13 16:35:54;;;;;;;5.85;2.55;;;;;;;;;;6284622;28;20122;-66
2021/07/13 16:38:56;;;;;;;5.63;2.50;;;;;;;;;;6292598;28;20093;-67
2021/07/13 16:41:59;;;;;;;4.53;1.00;;;;;;;;;;6278138;28;20141;-66
2021/07/13 16:45:00;;;;;;;2.65;1.02;;;;;;;;;;6277965;28;20045;-62
2021/07/13 16:48:04;;;;;;;4.15;1.10;;;;;;;;;;6269469;28;20048;-62
2021/07/13 16:51:05;;;;;;;4.25;0.85;;;;;;;;;;6262776;28;20045;-64
2021/07/13 16:54:07;;;;;;;2.50;1.10;;;;;;;;;;6282229;28;20047;-65
2021/07/13 16:57:12;;;;;;;4.07;1.05;;;;;;;;;;6274668;28;20480;-66
2021/07/13 17:00:15;;;;;;;3.28;1.20;;;;;;;;;;6278486;28;20044;-64
2021/07/13 17:03:18;;;;;;;3.67;1.10;;;;;;;;;;6275829;28;20048;-66
2021/07/13 17:06:19;;;;;;;5.15;1.08;;;;;;;;;;6278273;28;20089;-65
2021/07/13 17:09:21;;;;;;;3.75;0.82;;;;;;;;;;6282313;28;20478;-64
2021/07/13 17:12:22;;;;;;;3.05;1.10;;;;;;;;;;6273735;28;20210;-65
2021/07/13 17:15:26;;;;;;;3.42;1.00;;;;;;;;;;6276827;28;20040;-65
2021/07/13 17:18:29;;;;;;;2.08;0.90;;;;;;;;;;6275062;28;20181;-64
2021/07/13 17:21:30;;;;;;;2.63;0.80;;;;;;;;;;6272595;28;20090;-65
2021/07/13 17:24:32;;;;;;;3.38;0.85;;;;;;;;;;6284834;28;20052;-64
2021/07/13 17:27:33;;;;;;;3.92;0.80;;;;;;;;;;6279921;28;20413;-65
2021/07/13 17:30:35;;;;;;;1.60;0.90;;;;;;;;;;6275808;28;20041;-66
2021/07/13 17:33:38;;;;;;;4.50;0.88;;;;;;;;;;6281351;28;20063;-63
2021/07/13 17:36:39;;;;;;;4.22;1.08;;;;;;;;;;6276415;28;20044;-62
2021/07/13 17:39:42;;;;;;;4.07;1.30;;;;;;;;;;6298440;28;20048;-67
2021/07/13 17:42:43;;;;;;;3.30;1.30;;;;;;;;;;6287498;28;20098;-65
2021/07/13 17:45:45;;;;;;;4.72;1.58;;;;;;;;;;6290121;28;20139;-67
2021/07/13 17:48:49;;;;;;;4.47;1.70;;;;;;;;;;6296164;28;20076;-67
2021/07/13 17:51:51;;;;;;;4.95;2.50;;;;;;;;;;6290114;28;20040;-67
2021/07/13 17:54:52;;;;;;;3.25;1.83;;;;;;;;;;6298198;28;20118;-66
2021/07/13 17:57:54;;;;;;;3.13;1.80;;;;;;;;;;6290415;28;20111;-67
2021/07/13 18:00:55;;;;;;;5.57;2.05;;;;;;;;;;6294907;28;20536;-66
2021/07/13 18:04:03;;;;;;;3.78;1.50;;;;;;;;;;6295680;28;20043;-65
2021/07/13 18:07:05;;;;;;;3.40;1.80;;;;;;;;;;6285536;28;20056;-66
2021/07/13 18:10:09;;;;;;;3.38;1.98;;;;;;;;;;6289970;28;20142;-69